sensor_id;sensor_type;location;lat;lon;timestamp;pressure;altitude;pressure_sealevel;temperature
8227;BMP180;4154;48.810;9.012;2023-04-24T00:00:18;96076.00;;;11.20
8227;BMP180;4154;48.810;9.012;2023-04-24T00:02:44;96071.00;;;11.30
8227;BMP180;4154;48.810;9.012;2023-04-24T00:05:14;96079.00;;;11.30
8227;BMP180;4154;48.810;9.012;2023-04-24T00:07:41;96074.00;;;11.20
8227;BMP180;4154;48.810;9.012;2023-04-24T00:10:08;96073.00;;;11.30
8227;BMP180;4154;48.810;9.012;2023-04-24T00:12:35;96082.00;;;11.30
8227;BMP180;4154;48.810;9.012;2023-04-24T00:15:02;96108.00;;;11.30
8227;BMP180;4154;48.810;9.012;2023-04-24T00:17:28;96103.00;;;11.20
8227;BMP180;4154;48.810;9.012;2023-04-24T00:19:54;96092.00;;;11.20
8227;BMP180;4154;48.810;9.012;2023-04-24T00:22:27;96084.00;;;11.30
8227;BMP180;4154;48.810;9.012;2023-04-24T00:24:54;96073.00;;;11.40
8227;BMP180;4154;48.810;9.012;2023-04-24T00:27:20;96082.00;;;11.50
8227;BMP180;4154;48.810;9.012;2023-04-24T00:29:46;96073.00;;;11.40
8227;BMP180;4154;48.810;9.012;2023-04-24T00:32:13;96084.00;;;11.40
8227;BMP180;4154;48.810;9.012;2023-04-24T00:34:39;96080.00;;;11.40
8227;BMP180;4154;48.810;9.012;2023-04-24T00:37:04;96081.00;;;11.40
8227;BMP180;4154;48.810;9.012;2023-04-24T00:39:30;96064.00;;;11.40
8227;BMP180;4154;48.810;9.012;2023-04-24T00:41:56;96063.00;;;11.40
8227;BMP180;4154;48.810;9.012;2023-04-24T00:44:22;96063.00;;;11.50
8227;BMP180;4154;48.810;9.012;2023-04-24T00:46:49;96063.00;;;11.50
8227;BMP180;4154;48.810;9.012;2023-04-24T00:49:21;96069.00;;;11.50
8227;BMP180;4154;48.810;9.012;2023-04-24T00:51:47;96067.00;;;11.40
8227;BMP180;4154;48.810;9.012;2023-04-24T00:54:15;96054.00;;;11.40
8227;BMP180;4154;48.810;9.012;2023-04-24T00:56:42;96059.00;;;11.40
8227;BMP180;4154;48.810;9.012;2023-04-24T00:59:08;96050.00;;;11.50
8227;BMP180;4154;48.810;9.012;2023-04-24T01:01:35;96042.00;;;11.50
8227;BMP180;4154;48.810;9.012;2023-04-24T01:04:02;96050.00;;;11.50
8227;BMP180;4154;48.810;9.012;2023-04-24T01:06:29;96048.00;;;11.50
8227;BMP180;4154;48.810;9.012;2023-04-24T01:08:58;96042.00;;;11.60
8227;BMP180;4154;48.810;9.012;2023-04-24T01:11:25;96040.00;;;11.50
8227;BMP180;4154;48.810;9.012;2023-04-24T01:13:52;96046.00;;;11.50
8227;BMP180;4154;48.810;9.012;2023-04-24T01:16:18;96036.00;;;11.50
8227;BMP180;4154;48.810;9.012;2023-04-24T01:18:46;96042.00;;;11.50
8227;BMP180;4154;48.810;9.012;2023-04-24T01:21:15;96028.00;;;11.50
8227;BMP180;4154;48.810;9.012;2023-04-24T01:23:45;96039.00;;;11.40
8227;BMP180;4154;48.810;9.012;2023-04-24T01:26:14;96036.00;;;11.40
8227;BMP180;4154;48.810;9.012;2023-04-24T01:28:41;96024.00;;;11.40
8227;BMP180;4154;48.810;9.012;2023-04-24T01:31:07;96027.00;;;11.40
8227;BMP180;4154;48.810;9.012;2023-04-24T01:33:33;96020.00;;;11.40
8227;BMP180;4154;48.810;9.012;2023-04-24T01:36:00;96020.00;;;11.40
8227;BMP180;4154;48.810;9.012;2023-04-24T01:38:26;96020.00;;;11.40
8227;BMP180;4154;48.810;9.012;2023-04-24T01:40:52;96018.00;;;11.40
8227;BMP180;4154;48.810;9.012;2023-04-24T01:43:19;96032.00;;;11.30
8227;BMP180;4154;48.810;9.012;2023-04-24T01:45:45;96022.00;;;11.30
8227;BMP180;4154;48.810;9.012;2023-04-24T01:48:12;96025.00;;;11.20
8227;BMP180;4154;48.810;9.012;2023-04-24T01:50:39;96010.00;;;11.20
8227;BMP180;4154;48.810;9.012;2023-04-24T01:53:05;96020.00;;;11.20
8227;BMP180;4154;48.810;9.012;2023-04-24T01:55:31;96009.00;;;11.30
8227;BMP180;4154;48.810;9.012;2023-04-24T01:57:57;96026.00;;;11.30
8227;BMP180;4154;48.810;9.012;2023-04-24T02:00:25;96017.00;;;11.20
8227;BMP180;4154;48.810;9.012;2023-04-24T02:02:51;96025.00;;;11.20
8227;BMP180;4154;48.810;9.012;2023-04-24T02:05:17;96021.00;;;11.20
8227;BMP180;4154;48.810;9.012;2023-04-24T02:07:43;96009.00;;;11.10
8227;BMP180;4154;48.810;9.012;2023-04-24T02:10:10;96010.00;;;11.20
8227;BMP180;4154;48.810;9.012;2023-04-24T02:12:35;96023.00;;;11.10
8227;BMP180;4154;48.810;9.012;2023-04-24T02:15:02;96028.00;;;11.20
8227;BMP180;4154;48.810;9.012;2023-04-24T02:17:28;96025.00;;;11.10
8227;BMP180;4154;48.810;9.012;2023-04-24T02:19:54;96027.00;;;11.10
8227;BMP180;4154;48.810;9.012;2023-04-24T02:22:20;96035.00;;;11.20
8227;BMP180;4154;48.810;9.012;2023-04-24T02:24:46;96031.00;;;11.20
8227;BMP180;4154;48.810;9.012;2023-04-24T02:27:11;96039.00;;;11.10
8227;BMP180;4154;48.810;9.012;2023-04-24T02:29:37;96046.00;;;11.20
8227;BMP180;4154;48.810;9.012;2023-04-24T02:32:03;96048.00;;;11.10
8227;BMP180;4154;48.810;9.012;2023-04-24T02:34:30;96031.00;;;11.10
8227;BMP180;4154;48.810;9.012;2023-04-24T02:36:55;96046.00;;;11.10
8227;BMP180;4154;48.810;9.012;2023-04-24T02:39:22;96043.00;;;11.00
8227;BMP180;4154;48.810;9.012;2023-04-24T02:41:48;96046.00;;;11.00
8227;BMP180;4154;48.810;9.012;2023-04-24T02:44:14;96043.00;;;11.00
8227;BMP180;4154;48.810;9.012;2023-04-24T02:46:39;96039.00;;;10.90
8227;BMP180;4154;48.810;9.012;2023-04-24T02:49:07;96037.00;;;11.00
8227;BMP180;4154;48.810;9.012;2023-04-24T02:51:33;96035.00;;;11.00
8227;BMP180;4154;48.810;9.012;2023-04-24T02:53:59;96032.00;;;11.00
8227;BMP180;4154;48.810;9.012;2023-04-24T02:56:25;96029.00;;;11.00
8227;BMP180;4154;48.810;9.012;2023-04-24T02:58:51;96037.00;;;10.90
8227;BMP180;4154;48.810;9.012;2023-04-24T03:01:16;96031.00;;;10.90
8227;BMP180;4154;48.810;9.012;2023-04-24T03:03:43;96025.00;;;10.90
8227;BMP180;4154;48.810;9.012;2023-04-24T03:06:09;96021.00;;;10.80
8227;BMP180;4154;48.810;9.012;2023-04-24T03:08:35;96018.00;;;10.70
8227;BMP180;4154;48.810;9.012;2023-04-24T03:11:01;96014.00;;;10.80
8227;BMP180;4154;48.810;9.012;2023-04-24T03:13:27;96010.00;;;10.80
8227;BMP180;4154;48.810;9.012;2023-04-24T03:15:53;96017.00;;;10.80
8227;BMP180;4154;48.810;9.012;2023-04-24T03:18:19;96018.00;;;10.80
8227;BMP180;4154;48.810;9.012;2023-04-24T03:20:46;96010.00;;;10.70
8227;BMP180;4154;48.810;9.012;2023-04-24T03:23:13;96010.00;;;10.70
8227;BMP180;4154;48.810;9.012;2023-04-24T03:25:39;96014.00;;;10.70
8227;BMP180;4154;48.810;9.012;2023-04-24T03:28:05;95998.00;;;10.80
8227;BMP180;4154;48.810;9.012;2023-04-24T03:30:31;95997.00;;;10.70
8227;BMP180;4154;48.810;9.012;2023-04-24T03:32:57;95991.00;;;10.70
8227;BMP180;4154;48.810;9.012;2023-04-24T03:35:23;96000.00;;;10.70
8227;BMP180;4154;48.810;9.012;2023-04-24T03:37:49;95997.00;;;10.60
8227;BMP180;4154;48.810;9.012;2023-04-24T03:40:15;96003.00;;;10.50
8227;BMP180;4154;48.810;9.012;2023-04-24T03:42:41;96009.00;;;10.60
8227;BMP180;4154;48.810;9.012;2023-04-24T03:45:08;96004.00;;;10.50
8227;BMP180;4154;48.810;9.012;2023-04-24T03:47:34;96013.00;;;10.50
8227;BMP180;4154;48.810;9.012;2023-04-24T03:50:00;95997.00;;;10.40
8227;BMP180;4154;48.810;9.012;2023-04-24T03:52:26;96003.00;;;10.40
8227;BMP180;4154;48.810;9.012;2023-04-24T03:54:52;96015.00;;;10.40
8227;BMP180;4154;48.810;9.012;2023-04-24T03:57:17;96012.00;;;10.40
8227;BMP180;4154;48.810;9.012;2023-04-24T03:59:43;96009.00;;;10.40
8227;BMP180;4154;48.810;9.012;2023-04-24T04:02:09;96013.00;;;10.40
8227;BMP180;4154;48.810;9.012;2023-04-24T04:04:35;96024.00;;;10.40
8227;BMP180;4154;48.810;9.012;2023-04-24T04:07:01;96045.00;;;10.40
8227;BMP180;4154;48.810;9.012;2023-04-24T04:09:28;96050.00;;;10.30
8227;BMP180;4154;48.810;9.012;2023-04-24T04:11:55;96082.00;;;10.30
8227;BMP180;4154;48.810;9.012;2023-04-24T04:14:22;96094.00;;;10.10
8227;BMP180;4154;48.810;9.012;2023-04-24T04:16:48;96077.00;;;9.90
8227;BMP180;4154;48.810;9.012;2023-04-24T04:19:13;96101.00;;;9.90
8227;BMP180;4154;48.810;9.012;2023-04-24T04:21:39;96099.00;;;9.90
8227;BMP180;4154;48.810;9.012;2023-04-24T04:24:06;96088.00;;;9.80
8227;BMP180;4154;48.810;9.012;2023-04-24T04:26:33;96088.00;;;9.80
8227;BMP180;4154;48.810;9.012;2023-04-24T04:28:59;96093.00;;;9.70
8227;BMP180;4154;48.810;9.012;2023-04-24T04:31:29;96095.00;;;9.50
8227;BMP180;4154;48.810;9.012;2023-04-24T04:33:56;96088.00;;;9.40
8227;BMP180;4154;48.810;9.012;2023-04-24T04:36:22;96087.00;;;9.50
8227;BMP180;4154;48.810;9.012;2023-04-24T04:38:49;96083.00;;;9.50
8227;BMP180;4154;48.810;9.012;2023-04-24T04:41:15;96093.00;;;9.50
8227;BMP180;4154;48.810;9.012;2023-04-24T04:43:42;96102.00;;;9.60
8227;BMP180;4154;48.810;9.012;2023-04-24T04:46:08;96101.00;;;9.50
8227;BMP180;4154;48.810;9.012;2023-04-24T04:48:36;96102.00;;;9.50
8227;BMP180;4154;48.810;9.012;2023-04-24T04:51:03;96104.00;;;9.40
8227;BMP180;4154;48.810;9.012;2023-04-24T04:53:29;96113.00;;;9.50
8227;BMP180;4154;48.810;9.012;2023-04-24T04:55:55;96123.00;;;9.30
8227;BMP180;4154;48.810;9.012;2023-04-24T04:58:21;96119.00;;;9.40
8227;BMP180;4154;48.810;9.012;2023-04-24T05:00:47;96121.00;;;9.30
8227;BMP180;4154;48.810;9.012;2023-04-24T05:03:13;96128.00;;;9.30
8227;BMP180;4154;48.810;9.012;2023-04-24T05:05:39;96136.00;;;9.20
8227;BMP180;4154;48.810;9.012;2023-04-24T05:08:07;96134.00;;;9.20
8227;BMP180;4154;48.810;9.012;2023-04-24T05:10:34;96143.00;;;9.10
8227;BMP180;4154;48.810;9.012;2023-04-24T05:13:00;96137.00;;;9.20
8227;BMP180;4154;48.810;9.012;2023-04-24T05:15:26;96141.00;;;9.20
8227;BMP180;4154;48.810;9.012;2023-04-24T05:17:52;96151.00;;;9.20
8227;BMP180;4154;48.810;9.012;2023-04-24T05:20:18;96148.00;;;9.20
8227;BMP180;4154;48.810;9.012;2023-04-24T05:22:45;96164.00;;;9.20
8227;BMP180;4154;48.810;9.012;2023-04-24T05:25:11;96165.00;;;9.30
8227;BMP180;4154;48.810;9.012;2023-04-24T05:27:38;96161.00;;;9.30
8227;BMP180;4154;48.810;9.012;2023-04-24T05:30:05;96168.00;;;9.30
8227;BMP180;4154;48.810;9.012;2023-04-24T05:32:31;96174.00;;;9.30
8227;BMP180;4154;48.810;9.012;2023-04-24T05:34:57;96173.00;;;9.30
8227;BMP180;4154;48.810;9.012;2023-04-24T05:37:23;96190.00;;;9.30
8227;BMP180;4154;48.810;9.012;2023-04-24T05:39:49;96189.00;;;9.30
8227;BMP180;4154;48.810;9.012;2023-04-24T05:42:15;96185.00;;;9.40
8227;BMP180;4154;48.810;9.012;2023-04-24T05:44:41;96189.00;;;9.40
8227;BMP180;4154;48.810;9.012;2023-04-24T05:47:07;96197.00;;;9.40
8227;BMP180;4154;48.810;9.012;2023-04-24T05:49:33;96194.00;;;9.50
8227;BMP180;4154;48.810;9.012;2023-04-24T05:51:59;96191.00;;;9.50
8227;BMP180;4154;48.810;9.012;2023-04-24T05:54:25;96198.00;;;9.50
8227;BMP180;4154;48.810;9.012;2023-04-24T05:56:51;96203.00;;;9.50
8227;BMP180;4154;48.810;9.012;2023-04-24T05:59:19;96203.00;;;9.40
8227;BMP180;4154;48.810;9.012;2023-04-24T06:01:46;96208.00;;;9.50
8227;BMP180;4154;48.810;9.012;2023-04-24T06:04:12;96201.00;;;9.50
8227;BMP180;4154;48.810;9.012;2023-04-24T06:06:39;96213.00;;;9.60
8227;BMP180;4154;48.810;9.012;2023-04-24T06:09:06;96211.00;;;9.70
8227;BMP180;4154;48.810;9.012;2023-04-24T06:11:32;96210.00;;;9.80
8227;BMP180;4154;48.810;9.012;2023-04-24T06:13:58;96211.00;;;9.90
8227;BMP180;4154;48.810;9.012;2023-04-24T06:16:24;96200.00;;;10.00
8227;BMP180;4154;48.810;9.012;2023-04-24T06:18:50;96205.00;;;10.10
8227;BMP180;4154;48.810;9.012;2023-04-24T06:21:16;96210.00;;;10.10
8227;BMP180;4154;48.810;9.012;2023-04-24T06:23:43;96207.00;;;10.20
8227;BMP180;4154;48.810;9.012;2023-04-24T06:26:08;96203.00;;;10.20
8227;BMP180;4154;48.810;9.012;2023-04-24T06:28:34;96197.00;;;10.20
8227;BMP180;4154;48.810;9.012;2023-04-24T06:31:00;96199.00;;;10.30
8227;BMP180;4154;48.810;9.012;2023-04-24T06:33:25;96204.00;;;10.40
8227;BMP180;4154;48.810;9.012;2023-04-24T06:35:51;96203.00;;;10.50
8227;BMP180;4154;48.810;9.012;2023-04-24T06:38:18;96200.00;;;10.60
8227;BMP180;4154;48.810;9.012;2023-04-24T06:40:44;96209.00;;;10.70
8227;BMP180;4154;48.810;9.012;2023-04-24T06:43:09;96203.00;;;10.60
8227;BMP180;4154;48.810;9.012;2023-04-24T06:45:36;96213.00;;;10.70
8227;BMP180;4154;48.810;9.012;2023-04-24T06:48:03;96209.00;;;10.60
8227;BMP180;4154;48.810;9.012;2023-04-24T06:50:30;96200.00;;;10.80
8227;BMP180;4154;48.810;9.012;2023-04-24T06:52:55;96208.00;;;10.90
8227;BMP180;4154;48.810;9.012;2023-04-24T06:55:21;96200.00;;;10.80
8227;BMP180;4154;48.810;9.012;2023-04-24T06:57:47;96204.00;;;10.90
8227;BMP180;4154;48.810;9.012;2023-04-24T07:00:13;96191.00;;;10.90
8227;BMP180;4154;48.810;9.012;2023-04-24T07:02:39;96213.00;;;10.80
8227;BMP180;4154;48.810;9.012;2023-04-24T07:05:06;96208.00;;;10.80
8227;BMP180;4154;48.810;9.012;2023-04-24T07:07:34;96204.00;;;10.50
8227;BMP180;4154;48.810;9.012;2023-04-24T07:10:00;96204.00;;;10.40
8227;BMP180;4154;48.810;9.012;2023-04-24T07:12:26;96204.00;;;10.40
8227;BMP180;4154;48.810;9.012;2023-04-24T07:14:52;96209.00;;;10.40
8227;BMP180;4154;48.810;9.012;2023-04-24T07:17:18;96219.00;;;10.40
8227;BMP180;4154;48.810;9.012;2023-04-24T07:19:44;96207.00;;;10.40
8227;BMP180;4154;48.810;9.012;2023-04-24T07:22:11;96216.00;;;10.50
8227;BMP180;4154;48.810;9.012;2023-04-24T07:24:43;96203.00;;;10.60
8227;BMP180;4154;48.810;9.012;2023-04-24T07:27:09;96231.00;;;10.80
8227;BMP180;4154;48.810;9.012;2023-04-24T07:29:35;96211.00;;;10.80
8227;BMP180;4154;48.810;9.012;2023-04-24T07:32:01;96232.00;;;10.90
8227;BMP180;4154;48.810;9.012;2023-04-24T07:34:27;96227.00;;;10.90
8227;BMP180;4154;48.810;9.012;2023-04-24T07:36:53;96228.00;;;10.80
8227;BMP180;4154;48.810;9.012;2023-04-24T07:39:19;96240.00;;;10.80
8227;BMP180;4154;48.810;9.012;2023-04-24T07:41:45;96245.00;;;10.70
8227;BMP180;4154;48.810;9.012;2023-04-24T07:44:10;96235.00;;;10.70
8227;BMP180;4154;48.810;9.012;2023-04-24T07:46:36;96243.00;;;10.60
8227;BMP180;4154;48.810;9.012;2023-04-24T07:49:02;96235.00;;;10.60
8227;BMP180;4154;48.810;9.012;2023-04-24T07:51:30;96242.00;;;10.70
8227;BMP180;4154;48.810;9.012;2023-04-24T07:53:57;96253.00;;;10.70
8227;BMP180;4154;48.810;9.012;2023-04-24T07:56:23;96257.00;;;10.60
8227;BMP180;4154;48.810;9.012;2023-04-24T07:58:49;96261.00;;;10.50
8227;BMP180;4154;48.810;9.012;2023-04-24T08:01:15;96256.00;;;10.60
8227;BMP180;4154;48.810;9.012;2023-04-24T08:03:41;96269.00;;;10.70
8227;BMP180;4154;48.810;9.012;2023-04-24T08:06:07;96265.00;;;10.70
8227;BMP180;4154;48.810;9.012;2023-04-24T08:08:33;96259.00;;;10.80
8227;BMP180;4154;48.810;9.012;2023-04-24T08:10:59;96261.00;;;10.90
8227;BMP180;4154;48.810;9.012;2023-04-24T08:13:25;96273.00;;;10.90
8227;BMP180;4154;48.810;9.012;2023-04-24T08:15:50;96277.00;;;11.00
8227;BMP180;4154;48.810;9.012;2023-04-24T08:18:16;96278.00;;;11.10
8227;BMP180;4154;48.810;9.012;2023-04-24T08:20:42;96277.00;;;11.10
8227;BMP180;4154;48.810;9.012;2023-04-24T08:23:08;96289.00;;;11.00
8227;BMP180;4154;48.810;9.012;2023-04-24T08:25:34;96284.00;;;11.00
8227;BMP180;4154;48.810;9.012;2023-04-24T08:28:03;96296.00;;;10.90
8227;BMP180;4154;48.810;9.012;2023-04-24T08:30:30;96295.00;;;10.80
8227;BMP180;4154;48.810;9.012;2023-04-24T08:32:56;96307.00;;;10.70
8227;BMP180;4154;48.810;9.012;2023-04-24T08:35:22;96311.00;;;10.60
8227;BMP180;4154;48.810;9.012;2023-04-24T08:37:49;96310.00;;;10.50
8227;BMP180;4154;48.810;9.012;2023-04-24T08:40:16;96317.00;;;10.60
8227;BMP180;4154;48.810;9.012;2023-04-24T08:42:43;96327.00;;;10.50
8227;BMP180;4154;48.810;9.012;2023-04-24T08:45:11;96322.00;;;10.50
8227;BMP180;4154;48.810;9.012;2023-04-24T08:47:40;96329.00;;;10.50
8227;BMP180;4154;48.810;9.012;2023-04-24T08:50:07;96331.00;;;10.50
8227;BMP180;4154;48.810;9.012;2023-04-24T08:52:34;96340.00;;;10.50
8227;BMP180;4154;48.810;9.012;2023-04-24T08:55:01;96332.00;;;10.60
8227;BMP180;4154;48.810;9.012;2023-04-24T08:57:28;96344.00;;;10.70
8227;BMP180;4154;48.810;9.012;2023-04-24T08:59:57;96332.00;;;10.70
8227;BMP180;4154;48.810;9.012;2023-04-24T09:02:24;96330.00;;;10.70
8227;BMP180;4154;48.810;9.012;2023-04-24T09:04:52;96343.00;;;10.60
8227;BMP180;4154;48.810;9.012;2023-04-24T09:07:22;96354.00;;;10.40
8227;BMP180;4154;48.810;9.012;2023-04-24T09:09:51;96346.00;;;10.10
8227;BMP180;4154;48.810;9.012;2023-04-24T09:12:17;96367.00;;;10.00
8227;BMP180;4154;48.810;9.012;2023-04-24T09:14:45;96373.00;;;9.70
8227;BMP180;4154;48.810;9.012;2023-04-24T09:17:11;96363.00;;;9.70
8227;BMP180;4154;48.810;9.012;2023-04-24T09:19:38;96354.00;;;9.70
8227;BMP180;4154;48.810;9.012;2023-04-24T09:22:07;96355.00;;;9.80
8227;BMP180;4154;48.810;9.012;2023-04-24T09:24:34;96370.00;;;9.70
8227;BMP180;4154;48.810;9.012;2023-04-24T09:27:01;96362.00;;;9.90
8227;BMP180;4154;48.810;9.012;2023-04-24T09:29:28;96359.00;;;10.00
8227;BMP180;4154;48.810;9.012;2023-04-24T09:31:54;96357.00;;;10.00
8227;BMP180;4154;48.810;9.012;2023-04-24T09:34:27;96377.00;;;10.00
8227;BMP180;4154;48.810;9.012;2023-04-24T09:36:54;96368.00;;;10.00
8227;BMP180;4154;48.810;9.012;2023-04-24T09:39:20;96370.00;;;10.10
8227;BMP180;4154;48.810;9.012;2023-04-24T09:41:54;96375.00;;;10.10
8227;BMP180;4154;48.810;9.012;2023-04-24T09:44:30;96375.00;;;10.00
8227;BMP180;4154;48.810;9.012;2023-04-24T09:46:58;96362.00;;;9.90
8227;BMP180;4154;48.810;9.012;2023-04-24T09:49:27;96374.00;;;9.80
8227;BMP180;4154;48.810;9.012;2023-04-24T09:52:04;96378.00;;;9.90
8227;BMP180;4154;48.810;9.012;2023-04-24T09:54:30;96389.00;;;9.80
8227;BMP180;4154;48.810;9.012;2023-04-24T09:56:56;96375.00;;;9.80
8227;BMP180;4154;48.810;9.012;2023-04-24T09:59:23;96392.00;;;9.90
8227;BMP180;4154;48.810;9.012;2023-04-24T10:01:49;96385.00;;;10.20
8227;BMP180;4154;48.810;9.012;2023-04-24T10:04:21;96397.00;;;10.30
8227;BMP180;4154;48.810;9.012;2023-04-24T10:06:50;96389.00;;;10.50
8227;BMP180;4154;48.810;9.012;2023-04-24T10:09:18;96396.00;;;10.60
8227;BMP180;4154;48.810;9.012;2023-04-24T10:11:46;96385.00;;;10.80
8227;BMP180;4154;48.810;9.012;2023-04-24T10:14:15;96382.00;;;10.90
8227;BMP180;4154;48.810;9.012;2023-04-24T10:16:43;96387.00;;;11.00
8227;BMP180;4154;48.810;9.012;2023-04-24T10:19:10;96391.00;;;11.20
8227;BMP180;4154;48.810;9.012;2023-04-24T10:21:37;96402.00;;;11.30
8227;BMP180;4154;48.810;9.012;2023-04-24T10:24:08;96402.00;;;11.20
8227;BMP180;4154;48.810;9.012;2023-04-24T10:26:34;96404.00;;;11.20
8227;BMP180;4154;48.810;9.012;2023-04-24T10:29:01;96411.00;;;11.00
8227;BMP180;4154;48.810;9.012;2023-04-24T10:31:31;96419.00;;;10.90
8227;BMP180;4154;48.810;9.012;2023-04-24T10:33:57;96404.00;;;10.80
8227;BMP180;4154;48.810;9.012;2023-04-24T10:36:25;96407.00;;;10.90
8227;BMP180;4154;48.810;9.012;2023-04-24T10:38:54;96414.00;;;10.90
8227;BMP180;4154;48.810;9.012;2023-04-24T10:41:21;96401.00;;;10.80
8227;BMP180;4154;48.810;9.012;2023-04-24T10:44:15;96414.00;;;10.70
8227;BMP180;4154;48.810;9.012;2023-04-24T10:46:46;96426.00;;;10.60
8227;BMP180;4154;48.810;9.012;2023-04-24T10:49:15;96410.00;;;10.50
8227;BMP180;4154;48.810;9.012;2023-04-24T10:51:52;96423.00;;;10.60
8227;BMP180;4154;48.810;9.012;2023-04-24T10:54:29;96411.00;;;10.40
8227;BMP180;4154;48.810;9.012;2023-04-24T10:57:34;96437.00;;;10.30
8227;BMP180;4154;48.810;9.012;2023-04-24T11:00:18;96444.00;;;10.20
8227;BMP180;4154;48.810;9.012;2023-04-24T11:02:47;96432.00;;;10.10
8227;BMP180;4154;48.810;9.012;2023-04-24T11:05:16;96424.00;;;10.20
8227;BMP180;4154;48.810;9.012;2023-04-24T11:08:15;96429.00;;;10.40
8227;BMP180;4154;48.810;9.012;2023-04-24T11:10:47;96427.00;;;10.40
8227;BMP180;4154;48.810;9.012;2023-04-24T11:13:22;96425.00;;;10.40
8227;BMP180;4154;48.810;9.012;2023-04-24T11:16:15;96425.00;;;10.50
8227;BMP180;4154;48.810;9.012;2023-04-24T11:18:44;96428.00;;;10.50
8227;BMP180;4154;48.810;9.012;2023-04-24T11:21:19;96424.00;;;10.90
8227;BMP180;4154;48.810;9.012;2023-04-24T11:23:46;96411.00;;;11.10
8227;BMP180;4154;48.810;9.012;2023-04-24T11:26:22;96426.00;;;11.20
8227;BMP180;4154;48.810;9.012;2023-04-24T11:29:07;96448.00;;;11.20
8227;BMP180;4154;48.810;9.012;2023-04-24T11:31:40;96447.00;;;11.00
8227;BMP180;4154;48.810;9.012;2023-04-24T11:34:14;96454.00;;;11.10
8227;BMP180;4154;48.810;9.012;2023-04-24T11:36:44;96464.00;;;10.70
8227;BMP180;4154;48.810;9.012;2023-04-24T11:39:10;96456.00;;;10.70
8227;BMP180;4154;48.810;9.012;2023-04-24T11:41:37;96456.00;;;10.90
8227;BMP180;4154;48.810;9.012;2023-04-24T11:44:07;96454.00;;;10.90
8227;BMP180;4154;48.810;9.012;2023-04-24T11:46:33;96451.00;;;11.00
8227;BMP180;4154;48.810;9.012;2023-04-24T11:48:59;96456.00;;;11.30
8227;BMP180;4154;48.810;9.012;2023-04-24T11:51:27;96451.00;;;11.50
8227;BMP180;4154;48.810;9.012;2023-04-24T11:53:56;96451.00;;;11.60
8227;BMP180;4154;48.810;9.012;2023-04-24T11:56:24;96464.00;;;11.60
8227;BMP180;4154;48.810;9.012;2023-04-24T11:58:52;96441.00;;;11.60
8227;BMP180;4154;48.810;9.012;2023-04-24T12:01:20;96460.00;;;11.60
8227;BMP180;4154;48.810;9.012;2023-04-24T12:03:50;96451.00;;;11.50
8227;BMP180;4154;48.810;9.012;2023-04-24T12:06:17;96458.00;;;11.60
8227;BMP180;4154;48.810;9.012;2023-04-24T12:08:46;96458.00;;;11.40
8227;BMP180;4154;48.810;9.012;2023-04-24T12:11:16;96468.00;;;11.30
8227;BMP180;4154;48.810;9.012;2023-04-24T12:13:43;96465.00;;;11.30
8227;BMP180;4154;48.810;9.012;2023-04-24T12:16:10;96475.00;;;11.60
8227;BMP180;4154;48.810;9.012;2023-04-24T12:18:42;96475.00;;;11.50
8227;BMP180;4154;48.810;9.012;2023-04-24T12:21:22;96463.00;;;11.40
8227;BMP180;4154;48.810;9.012;2023-04-24T12:23:49;96477.00;;;11.20
8227;BMP180;4154;48.810;9.012;2023-04-24T12:26:20;96476.00;;;11.10
8227;BMP180;4154;48.810;9.012;2023-04-24T12:28:49;96466.00;;;11.40
8227;BMP180;4154;48.810;9.012;2023-04-24T12:31:16;96472.00;;;11.70
8227;BMP180;4154;48.810;9.012;2023-04-24T12:33:43;96468.00;;;11.80
8227;BMP180;4154;48.810;9.012;2023-04-24T12:36:12;96463.00;;;11.80
8227;BMP180;4154;48.810;9.012;2023-04-24T12:38:39;96476.00;;;11.80
8227;BMP180;4154;48.810;9.012;2023-04-24T12:41:13;96478.00;;;11.70
8227;BMP180;4154;48.810;9.012;2023-04-24T12:43:49;96493.00;;;11.40
8227;BMP180;4154;48.810;9.012;2023-04-24T12:46:15;96510.00;;;11.10
8227;BMP180;4154;48.810;9.012;2023-04-24T12:48:41;96516.00;;;10.80
8227;BMP180;4154;48.810;9.012;2023-04-24T12:51:07;96518.00;;;10.50
8227;BMP180;4154;48.810;9.012;2023-04-24T12:53:33;96518.00;;;10.40
8227;BMP180;4154;48.810;9.012;2023-04-24T12:55:59;96508.00;;;10.60
8227;BMP180;4154;48.810;9.012;2023-04-24T12:58:24;96503.00;;;10.60
8227;BMP180;4154;48.810;9.012;2023-04-24T13:00:51;96509.00;;;10.60
8227;BMP180;4154;48.810;9.012;2023-04-24T13:03:17;96512.00;;;10.90
8227;BMP180;4154;48.810;9.012;2023-04-24T13:05:43;96505.00;;;10.90
8227;BMP180;4154;48.810;9.012;2023-04-24T13:08:10;96509.00;;;11.00
8227;BMP180;4154;48.810;9.012;2023-04-24T13:10:36;96495.00;;;11.00
8227;BMP180;4154;48.810;9.012;2023-04-24T13:13:02;96498.00;;;11.30
8227;BMP180;4154;48.810;9.012;2023-04-24T13:15:29;96496.00;;;11.60
8227;BMP180;4154;48.810;9.012;2023-04-24T13:17:55;96501.00;;;11.90
8227;BMP180;4154;48.810;9.012;2023-04-24T13:20:21;96497.00;;;12.00
8227;BMP180;4154;48.810;9.012;2023-04-24T13:22:47;96491.00;;;11.90
8227;BMP180;4154;48.810;9.012;2023-04-24T13:25:13;96509.00;;;11.80
8227;BMP180;4154;48.810;9.012;2023-04-24T13:27:42;96508.00;;;11.80
8227;BMP180;4154;48.810;9.012;2023-04-24T13:30:08;96527.00;;;11.70
8227;BMP180;4154;48.810;9.012;2023-04-24T13:32:35;96521.00;;;11.50
8227;BMP180;4154;48.810;9.012;2023-04-24T13:35:01;96520.00;;;10.90
8227;BMP180;4154;48.810;9.012;2023-04-24T13:37:28;96523.00;;;10.80
8227;BMP180;4154;48.810;9.012;2023-04-24T13:39:54;96532.00;;;10.70
8227;BMP180;4154;48.810;9.012;2023-04-24T13:42:20;96519.00;;;10.90
8227;BMP180;4154;48.810;9.012;2023-04-24T13:44:46;96534.00;;;11.10
8227;BMP180;4154;48.810;9.012;2023-04-24T13:47:12;96533.00;;;11.20
8227;BMP180;4154;48.810;9.012;2023-04-24T13:49:38;96536.00;;;11.40
8227;BMP180;4154;48.810;9.012;2023-04-24T13:52:04;96529.00;;;11.40
8227;BMP180;4154;48.810;9.012;2023-04-24T13:54:30;96526.00;;;11.50
8227;BMP180;4154;48.810;9.012;2023-04-24T13:56:58;96524.00;;;11.70
8227;BMP180;4154;48.810;9.012;2023-04-24T13:59:24;96522.00;;;11.70
8227;BMP180;4154;48.810;9.012;2023-04-24T14:01:50;96519.00;;;12.10
8227;BMP180;4154;48.810;9.012;2023-04-24T14:04:16;96507.00;;;12.40
8227;BMP180;4154;48.810;9.012;2023-04-24T14:06:41;96506.00;;;12.40
8227;BMP180;4154;48.810;9.012;2023-04-24T14:09:07;96504.00;;;12.40
8227;BMP180;4154;48.810;9.012;2023-04-24T14:11:34;96508.00;;;12.60
8227;BMP180;4154;48.810;9.012;2023-04-24T14:14:00;96508.00;;;12.90
8227;BMP180;4154;48.810;9.012;2023-04-24T14:16:25;96507.00;;;12.90
8227;BMP180;4154;48.810;9.012;2023-04-24T14:18:51;96496.00;;;12.70
8227;BMP180;4154;48.810;9.012;2023-04-24T14:21:17;96500.00;;;12.60
8227;BMP180;4154;48.810;9.012;2023-04-24T14:23:43;96504.00;;;12.60
8227;BMP180;4154;48.810;9.012;2023-04-24T14:26:09;96498.00;;;12.30
8227;BMP180;4154;48.810;9.012;2023-04-24T14:28:35;96508.00;;;12.20
8227;BMP180;4154;48.810;9.012;2023-04-24T14:31:01;96507.00;;;11.90
8227;BMP180;4154;48.810;9.012;2023-04-24T14:33:27;96512.00;;;11.80
8227;BMP180;4154;48.810;9.012;2023-04-24T14:35:53;96517.00;;;11.80